createdAt,value
2022-09-07T00:00:56.712Z,19.78
2022-09-07T00:03:24.640Z,19.87
2022-09-07T00:05:52.836Z,19.99
2022-09-07T00:08:22.823Z,19.98
2022-09-07T00:11:04.048Z,19.83
2022-09-07T00:13:34.915Z,19.77
2022-09-07T00:16:07.713Z,19.62
2022-09-07T00:18:35.566Z,19.70
2022-09-07T00:21:05.669Z,19.74
2022-09-07T00:23:34.265Z,19.75
2022-09-07T00:26:03.712Z,19.73
2022-09-07T00:28:32.124Z,19.64
2022-09-07T00:30:59.889Z,19.59
2022-09-07T00:33:27.754Z,19.43
2022-09-07T00:36:02.545Z,19.42
2022-09-07T00:38:30.327Z,19.20
2022-09-07T00:40:58.316Z,19.44
2022-09-07T00:43:30.614Z,19.41
2022-09-07T00:45:58.330Z,19.37
2022-09-07T00:48:31.553Z,19.29
2022-09-07T00:51:05.741Z,19.53
2022-09-07T00:53:43.565Z,19.41
2022-09-07T00:56:11.786Z,19.49
2022-09-07T00:58:41.319Z,19.44
2022-09-07T01:01:09.944Z,19.50
2022-09-07T01:03:41.399Z,19.44
2022-09-07T01:06:20.220Z,19.50
2022-09-07T01:08:49.966Z,19.45
2022-09-07T01:11:22.595Z,19.32
2022-09-07T01:13:50.904Z,19.35
2022-09-07T01:16:52.797Z,19.20
2022-09-07T01:19:26.654Z,19.16
2022-09-07T01:22:13.163Z,19.05
2022-09-07T01:24:56.425Z,19.16
2022-09-07T01:27:50.371Z,19.08
2022-09-07T01:30:19.570Z,18.87
2022-09-07T01:33:02.302Z,19.14
2022-09-07T01:35:33.049Z,18.78
2022-09-07T01:38:23.717Z,18.83
2022-09-07T01:41:00.405Z,18.49
2022-09-07T01:43:41.837Z,18.35
2022-09-07T01:46:19.621Z,18.56
2022-09-07T01:48:48.922Z,18.63
2022-09-07T01:51:17.501Z,18.79
2022-09-07T01:53:56.523Z,18.65
2022-09-07T01:56:35.286Z,18.75
2022-09-07T01:59:25.417Z,18.72
2022-09-07T02:02:08.014Z,18.62
2022-09-07T02:04:52.520Z,18.71
2022-09-07T02:07:29.242Z,18.60
2022-09-07T02:10:11.492Z,18.46
2022-09-07T02:12:44.796Z,18.59
2022-09-07T02:15:16.708Z,18.67
2022-09-07T02:17:48.790Z,18.53
2022-09-07T02:20:22.439Z,18.72
2022-09-07T02:22:57.685Z,18.64
2022-09-07T02:25:30.087Z,18.70
2022-09-07T02:28:06.561Z,18.63
2022-09-07T02:30:34.318Z,18.57
2022-09-07T02:33:01.812Z,18.65
2022-09-07T02:35:29.244Z,18.82
2022-09-07T02:38:04.466Z,18.83
2022-09-07T02:40:32.516Z,18.87
2022-09-07T02:43:03.020Z,19.06
2022-09-07T02:45:52.568Z,18.86
2022-09-07T02:48:56.579Z,18.48
2022-09-07T02:51:48.120Z,18.68
2022-09-07T02:54:31.041Z,18.66
2022-09-07T02:57:18.471Z,18.69
2022-09-07T03:00:15.332Z,18.64
2022-09-07T03:02:57.077Z,18.39
2022-09-07T03:05:29.610Z,18.51
2022-09-07T03:08:04.312Z,18.64
2022-09-07T03:10:33.222Z,18.51
2022-09-07T03:13:01.520Z,18.41
2022-09-07T03:15:33.214Z,18.51
2022-09-07T03:18:01.588Z,18.41
2022-09-07T03:20:29.630Z,18.42
2022-09-07T03:23:00.374Z,18.50
2022-09-07T03:25:28.916Z,18.72
2022-09-07T03:27:57.125Z,18.67
2022-09-07T03:30:25.255Z,18.73
2022-09-07T03:32:53.265Z,18.76
2022-09-07T03:35:21.148Z,18.79
2022-09-07T03:37:49.147Z,18.65
2022-09-07T03:40:17.290Z,18.71
2022-09-07T03:42:50.118Z,18.66
2022-09-07T03:45:18.214Z,18.57
2022-09-07T03:47:45.765Z,18.69
2022-09-07T03:50:13.315Z,18.61
2022-09-07T03:52:41.038Z,18.62
2022-09-07T03:55:08.731Z,18.45
2022-09-07T03:57:36.315Z,18.51
2022-09-07T04:00:05.123Z,18.52
2022-09-07T04:02:39.916Z,18.54
2022-09-07T04:05:11.533Z,18.41
2022-09-07T04:07:39.114Z,18.14
2022-09-07T04:10:10.382Z,18.00
2022-09-07T04:12:38.138Z,18.08
2022-09-07T04:15:05.876Z,18.10
2022-09-07T04:17:33.303Z,18.19
2022-09-07T04:20:01.056Z,18.31
2022-09-07T04:22:28.491Z,18.20
2022-09-07T04:24:56.905Z,18.29
2022-09-07T04:27:25.339Z,18.18
2022-09-07T04:29:53.533Z,18.08
2022-09-07T04:32:21.362Z,18.09
2022-09-07T04:34:54.202Z,17.70
2022-09-07T04:37:22.413Z,17.73
2022-09-07T04:39:53.745Z,17.59
2022-09-07T04:42:22.007Z,17.43
2022-09-07T04:44:51.217Z,17.76
2022-09-07T04:47:19.034Z,17.98
2022-09-07T04:49:50.859Z,18.64
2022-09-07T04:52:19.695Z,18.19
2022-09-07T04:54:51.784Z,18.44
2022-09-07T04:57:25.045Z,18.48
2022-09-07T04:59:53.112Z,18.57
2022-09-07T05:02:21.031Z,18.40
2022-09-07T05:04:58.312Z,18.25
2022-09-07T05:07:30.332Z,18.47
2022-09-07T05:09:58.176Z,18.36
2022-09-07T05:12:25.792Z,18.58
2022-09-07T05:14:54.042Z,18.54
2022-09-07T05:17:21.719Z,18.56
2022-09-07T05:19:49.257Z,18.72
2022-09-07T05:22:17.230Z,18.78
2022-09-07T05:24:45.021Z,18.73
2022-09-07T05:27:14.857Z,18.93
2022-09-07T05:32:33.197Z,18.91
2022-09-07T05:35:00.936Z,18.91
2022-09-07T05:37:28.505Z,19.01
2022-09-07T05:39:57.058Z,18.98
2022-09-07T05:42:24.968Z,18.99
2022-09-07T05:44:53.218Z,19.12
2022-09-07T05:47:21.151Z,19.02
2022-09-07T05:49:48.895Z,18.89
2022-09-07T05:52:16.468Z,19.08
2022-09-07T05:54:47.236Z,19.18
2022-09-07T05:57:18.097Z,19.30
2022-09-07T05:59:46.453Z,19.42
2022-09-07T06:02:16.837Z,19.44
2022-09-07T06:04:44.945Z,19.43
2022-09-07T06:07:22.534Z,19.52
2022-09-07T06:12:39.386Z,19.72
2022-09-07T06:15:09.247Z,19.84
2022-09-07T06:17:37.403Z,19.87
2022-09-07T06:20:06.444Z,19.92
2022-09-07T06:22:41.241Z,19.91
2022-09-07T06:25:09.119Z,19.97
2022-09-07T06:27:37.636Z,20.03
2022-09-07T06:30:08.392Z,20.09
2022-09-07T06:32:43.693Z,20.20
2022-09-07T06:35:15.906Z,20.17
2022-09-07T06:37:44.238Z,20.26
2022-09-07T06:40:12.292Z,20.39
2022-09-07T06:42:43.049Z,20.35
2022-09-07T06:45:11.931Z,20.31
2022-09-07T06:47:40.982Z,20.24
2022-09-07T06:50:12.679Z,20.37
2022-09-07T06:55:29.243Z,20.66
2022-09-07T06:57:57.222Z,20.73
2022-09-07T07:00:25.552Z,20.86
2022-09-07T07:02:53.615Z,20.81
2022-09-07T07:05:22.205Z,20.94
2022-09-07T07:07:49.872Z,20.98
2022-09-07T07:10:23.586Z,21.11
2022-09-07T07:12:58.875Z,21.10
2022-09-07T07:15:28.924Z,21.11
2022-09-07T07:18:14.831Z,21.18
2022-09-07T07:20:51.521Z,21.30
2022-09-07T07:23:19.919Z,21.36
2022-09-07T07:25:47.580Z,21.39
2022-09-07T07:31:09.085Z,21.51
2022-09-07T07:33:43.673Z,21.56
2022-09-07T07:36:13.509Z,21.59
2022-09-07T07:44:20.541Z,21.69
2022-09-07T07:46:50.512Z,22.11
2022-09-07T07:49:19.709Z,21.90
2022-09-07T07:54:39.523Z,21.88
2022-09-07T07:57:11.030Z,21.93
2022-09-07T07:59:39.694Z,22.02
2022-09-07T08:02:09.067Z,22.12
2022-09-07T08:04:37.315Z,22.15
2022-09-07T08:07:10.995Z,22.22
2022-09-07T08:09:45.977Z,22.24
2022-09-07T08:12:19.244Z,22.27
2022-09-07T08:14:59.640Z,22.41
2022-09-07T08:17:28.221Z,22.41
2022-09-07T08:20:00.164Z,22.42
2022-09-07T08:22:36.500Z,22.56
2022-09-07T08:25:05.825Z,22.58
2022-09-07T08:27:39.959Z,22.71
2022-09-07T08:30:14.734Z,22.63
2022-09-07T08:32:54.295Z,22.66
2022-09-07T08:35:22.702Z,22.72
2022-09-07T08:37:50.345Z,22.85
2022-09-07T08:40:19.004Z,22.91
2022-09-07T08:42:53.202Z,23.00
2022-09-07T08:45:31.840Z,22.97
2022-09-07T08:48:00.099Z,23.09
2022-09-07T08:50:38.996Z,23.21
2022-09-07T08:53:17.829Z,23.29
2022-09-07T08:56:06.356Z,23.30
2022-09-07T08:58:49.061Z,23.38
2022-09-07T09:01:31.595Z,23.36
2022-09-07T09:04:19.407Z,23.43
2022-09-07T09:06:53.972Z,23.54
2022-09-07T09:09:47.050Z,23.68
2022-09-07T09:12:37.481Z,23.79
2022-09-07T09:15:32.829Z,23.86
2022-09-07T09:18:08.170Z,23.81
2022-09-07T09:20:50.051Z,23.89
2022-09-07T09:23:24.530Z,24.05
2022-09-07T09:25:56.055Z,24.16
2022-09-07T09:28:25.508Z,24.22
2022-09-07T09:30:55.727Z,24.24
2022-09-07T09:33:30.129Z,24.36
2022-09-07T09:36:00.619Z,24.48
2022-09-07T09:38:43.694Z,24.46
2022-09-07T09:41:15.513Z,24.55
2022-09-07T09:43:54.059Z,24.55
2022-09-07T09:46:28.812Z,24.70
2022-09-07T09:48:59.868Z,24.63
2022-09-07T09:54:25.673Z,24.87
2022-09-07T09:56:54.199Z,25.02
2022-09-07T10:05:35.366Z,25.26
2022-09-07T10:08:05.331Z,25.28
2022-09-07T10:10:33.091Z,25.26
2022-09-07T10:13:05.998Z,25.38
2022-09-07T10:15:41.281Z,25.32
2022-09-07T10:18:21.957Z,25.31
2022-09-07T10:20:49.738Z,25.49
2022-09-07T10:23:25.426Z,25.43
2022-09-07T10:25:53.648Z,25.50
2022-09-07T10:28:24.890Z,25.59
2022-09-07T10:31:22.124Z,25.72
2022-09-07T10:37:03.872Z,25.58
2022-09-07T10:40:07.190Z,25.96
2022-09-07T10:45:57.157Z,26.04
2022-09-07T10:49:00.378Z,26.02
2022-09-07T10:51:56.692Z,26.06
2022-09-07T10:54:46.441Z,26.12
2022-09-07T10:57:26.831Z,26.14
2022-09-07T11:00:20.051Z,26.19
2022-09-07T11:03:25.536Z,26.30
2022-09-07T11:06:22.371Z,26.15
2022-09-07T11:09:16.478Z,26.47
2022-09-07T11:12:05.740Z,26.55
2022-09-07T11:15:03.121Z,26.56
2022-09-07T11:17:31.378Z,26.64
2022-09-07T11:20:27.451Z,26.61
2022-09-07T11:23:27.285Z,26.77
2022-09-07T11:26:38.418Z,26.68
2022-09-07T11:29:29.640Z,26.69
2022-09-07T11:32:02.243Z,26.82
2022-09-07T11:34:41.479Z,26.84
2022-09-07T11:37:35.467Z,26.86
2022-09-07T11:40:25.811Z,27.03
2022-09-07T11:42:59.825Z,27.14
2022-09-07T11:45:44.461Z,27.15
2022-09-07T11:48:40.338Z,27.32
2022-09-07T11:51:20.081Z,27.34
2022-09-07T11:53:55.273Z,27.42
2022-09-07T11:56:38.450Z,27.57
2022-09-07T11:59:28.057Z,27.67
2022-09-07T12:02:17.391Z,27.93
2022-09-07T12:05:08.555Z,28.10
2022-09-07T12:08:27.398Z,28.34
2022-09-07T12:11:19.086Z,28.48
2022-09-07T12:14:05.578Z,28.48
2022-09-07T12:16:56.405Z,28.56
2022-09-07T12:19:28.668Z,28.26
2022-09-07T12:21:58.198Z,28.48
2022-09-07T12:24:42.429Z,28.40
2022-09-07T12:27:20.032Z,28.62
2022-09-07T12:30:02.604Z,28.75
2022-09-07T12:32:57.445Z,28.86
2022-09-07T12:35:31.998Z,28.83
2022-09-07T12:38:08.466Z,28.87
2022-09-07T12:40:35.839Z,28.87
2022-09-07T12:43:13.010Z,29.00
2022-09-07T12:45:44.486Z,29.01
2022-09-07T12:48:17.374Z,28.97
2022-09-07T12:51:09.765Z,29.17
2022-09-07T12:53:57.901Z,29.10
2022-09-07T12:56:45.117Z,29.00
2022-09-07T12:59:40.341Z,29.12
2022-09-07T13:02:29.441Z,29.20
2022-09-07T13:05:06.351Z,29.32
2022-09-07T13:08:04.316Z,29.44
2022-09-07T13:10:42.059Z,29.64
2022-09-07T13:13:16.138Z,29.58
2022-09-07T13:16:13.961Z,29.54
2022-09-07T13:18:47.731Z,29.97
2022-09-07T13:21:17.624Z,30.00
2022-09-07T13:27:24.231Z,30.35
2022-09-07T13:30:07.275Z,30.48
2022-09-07T13:35:24.919Z,30.55
2022-09-07T13:38:03.511Z,30.66
2022-09-07T13:40:35.197Z,30.13
2022-09-07T13:43:08.208Z,30.38
2022-09-07T13:46:02.491Z,30.52
2022-09-07T13:48:44.609Z,30.71
2022-09-07T13:51:35.964Z,30.80
2022-09-07T13:54:14.095Z,30.75
2022-09-07T13:56:56.876Z,30.88
2022-09-07T13:59:35.372Z,30.88
2022-09-07T14:02:26.643Z,31.04
2022-09-07T14:05:00.701Z,30.97
2022-09-07T14:07:33.306Z,30.78
2022-09-07T14:10:14.416Z,30.40
2022-09-07T14:13:06.279Z,30.65
2022-09-07T14:15:42.413Z,30.67
2022-09-07T14:18:29.986Z,30.60
2022-09-07T14:21:01.662Z,30.60
2022-09-07T14:23:36.255Z,30.43
2022-09-07T14:26:17.733Z,30.29
2022-09-07T14:29:02.215Z,30.22
2022-09-07T14:31:34.780Z,30.08
2022-09-07T14:34:06.726Z,29.92
2022-09-07T14:36:44.697Z,29.86
2022-09-07T14:39:15.786Z,29.71
2022-09-07T14:41:46.494Z,29.60
2022-09-07T14:44:34.241Z,29.69
2022-09-07T14:47:18.910Z,29.58
2022-09-07T14:49:52.765Z,29.59
2022-09-07T14:52:29.434Z,29.46
2022-09-07T14:54:57.097Z,29.43
2022-09-07T14:57:32.089Z,29.47
2022-09-07T15:00:32.257Z,29.54
2022-09-07T15:03:39.072Z,29.58
2022-09-07T15:06:09.560Z,29.48
2022-09-07T15:08:46.445Z,29.44
2022-09-07T15:11:38.725Z,29.54
2022-09-07T15:14:11.914Z,29.58
2022-09-07T15:16:42.803Z,29.31
2022-09-07T15:19:17.056Z,29.34
2022-09-07T15:21:47.728Z,29.42
2022-09-07T15:24:16.558Z,29.38
2022-09-07T15:27:02.571Z,29.24
2022-09-07T15:29:32.131Z,29.26
2022-09-07T15:32:04.398Z,29.22
2022-09-07T15:34:34.390Z,29.22
2022-09-07T15:37:03.687Z,29.18
2022-09-07T15:39:34.521Z,29.14
2022-09-07T15:42:59.435Z,28.99
2022-09-07T15:44:53.872Z,28.98
2022-09-07T15:50:10.388Z,28.83
2022-09-07T15:52:38.805Z,28.65
2022-09-07T15:55:08.741Z,28.56
2022-09-07T15:58:05.234Z,28.53
2022-09-07T16:00:24.401Z,28.49
2022-09-07T16:03:08.808Z,28.45
2022-09-07T16:05:41.123Z,28.41
2022-09-07T16:08:25.121Z,28.39
2022-09-07T16:10:54.138Z,28.35
2022-09-07T16:13:24.469Z,28.39
2022-09-07T16:15:52.429Z,28.36
2022-09-07T16:18:22.394Z,28.26
2022-09-07T16:20:52.875Z,28.22
2022-09-07T16:23:20.893Z,28.07
2022-09-07T16:25:58.771Z,27.99
2022-09-07T16:28:28.287Z,27.86
2022-09-07T16:30:56.545Z,27.84
2022-09-07T16:33:36.135Z,27.78
2022-09-07T16:36:13.095Z,27.82
2022-09-07T16:38:45.933Z,27.70
2022-09-07T16:41:19.985Z,27.51
2022-09-07T16:43:47.987Z,27.45
2022-09-07T16:46:21.251Z,27.46
2022-09-07T16:48:49.239Z,27.35
2022-09-07T16:51:19.948Z,27.30
2022-09-07T16:53:51.798Z,27.29
2022-09-07T16:56:21.750Z,27.11
2022-09-07T16:58:55.548Z,26.84
2022-09-07T17:01:29.001Z,26.89
2022-09-07T17:03:57.045Z,26.64
2022-09-07T17:06:26.392Z,26.62
2022-09-07T17:08:54.869Z,26.57
2022-09-07T17:11:29.858Z,26.33
2022-09-07T17:14:02.719Z,26.06
2022-09-07T17:16:33.644Z,25.86
2022-09-07T17:22:01.565Z,25.81
2022-09-07T17:24:32.221Z,25.75
2022-09-07T17:27:01.131Z,25.85
2022-09-07T17:29:33.861Z,25.84
2022-09-07T17:32:23.924Z,25.85
2022-09-07T17:34:53.452Z,25.40
2022-09-07T17:37:25.723Z,25.51
2022-09-07T17:39:53.850Z,25.37
2022-09-07T17:42:22.170Z,25.19
2022-09-07T17:44:52.845Z,25.16
2022-09-07T17:47:21.249Z,24.87
2022-09-07T17:49:49.281Z,24.94
2022-09-07T17:52:17.101Z,24.88
2022-09-07T17:54:45.748Z,24.94
2022-09-07T17:57:16.210Z,24.82
2022-09-07T18:02:38.014Z,24.68
2022-09-07T18:05:09.705Z,24.81
2022-09-07T18:07:38.629Z,24.81
2022-09-07T18:10:11.752Z,24.71
2022-09-07T18:12:40.744Z,24.59
2022-09-07T18:15:10.047Z,24.49
2022-09-07T18:17:41.727Z,24.30
2022-09-07T18:20:11.191Z,24.18
2022-09-07T18:22:39.829Z,24.38
2022-09-07T18:25:10.372Z,24.07
2022-09-07T18:27:40.426Z,24.13
2022-09-07T18:30:11.636Z,24.28
2022-09-07T18:32:40.543Z,24.23
2022-09-07T18:35:13.045Z,24.10
2022-09-07T18:37:41.945Z,24.02
2022-09-07T18:40:10.690Z,24.32
2022-09-07T18:42:40.564Z,24.39
2022-09-07T18:48:00.393Z,23.76
2022-09-07T18:50:28.838Z,24.07
2022-09-07T18:53:07.334Z,23.96
2022-09-07T18:55:44.628Z,23.91
2022-09-07T18:58:20.872Z,23.83
2022-09-07T19:00:58.518Z,23.89
2022-09-07T19:03:28.486Z,23.33
2022-09-07T19:06:02.459Z,23.17
2022-09-07T19:08:35.360Z,23.13
2022-09-07T19:11:25.535Z,23.44
2022-09-07T19:14:01.868Z,23.05
2022-09-07T19:16:32.122Z,22.92
2022-09-07T19:19:06.366Z,22.76
2022-09-07T19:21:38.019Z,22.72
2022-09-07T19:24:14.040Z,22.76
2022-09-07T19:26:48.725Z,22.96
2022-09-07T19:29:24.067Z,23.04
2022-09-07T19:32:07.154Z,22.94
2022-09-07T19:34:43.790Z,23.00
2022-09-07T19:37:16.809Z,22.58
2022-09-07T19:39:51.039Z,22.56
2022-09-07T19:42:30.273Z,22.89
2022-09-07T19:45:03.248Z,23.23
2022-09-07T19:47:34.041Z,22.90
2022-09-07T19:50:02.815Z,23.17
2022-09-07T19:52:34.215Z,22.89
2022-09-07T19:55:05.268Z,22.93
2022-09-07T19:57:38.555Z,23.13
2022-09-07T20:00:09.847Z,23.09
2022-09-07T20:02:40.955Z,23.12
2022-09-07T20:05:15.317Z,22.90
2022-09-07T20:07:46.973Z,22.70
2022-09-07T20:10:16.850Z,23.08
2022-09-07T20:12:47.409Z,23.21
2022-09-07T20:15:15.946Z,23.08
2022-09-07T20:17:44.774Z,22.89
2022-09-07T20:20:12.996Z,23.11
2022-09-07T20:22:41.356Z,23.10
2022-09-07T20:25:13.374Z,23.24
2022-09-07T20:27:42.238Z,23.11
2022-09-07T20:30:14.474Z,23.05
2022-09-07T20:32:46.008Z,23.04
2022-09-07T20:35:15.638Z,22.58
2022-09-07T20:37:45.169Z,22.72
2022-09-07T20:40:15.923Z,22.78
2022-09-07T20:42:43.896Z,22.84
2022-09-07T20:45:11.545Z,22.88
2022-09-07T20:47:40.041Z,22.93
2022-09-07T20:50:09.022Z,22.86
2022-09-07T20:52:37.078Z,22.89
2022-09-07T20:55:07.199Z,22.88
2022-09-07T20:57:38.015Z,22.78
2022-09-07T21:00:07.911Z,22.88
2022-09-07T21:02:36.666Z,22.69
2022-09-07T21:05:05.274Z,22.55
2022-09-07T21:07:33.503Z,22.39
2022-09-07T21:10:04.693Z,22.65
2022-09-07T21:12:35.305Z,22.64
2022-09-07T21:15:07.274Z,22.57
2022-09-07T21:17:35.108Z,22.29
2022-09-07T21:20:02.868Z,22.24
2022-09-07T21:22:32.617Z,22.05
2022-09-07T21:25:02.207Z,22.01
2022-09-07T21:27:38.633Z,22.25
2022-09-07T21:30:07.477Z,21.94
2022-09-07T21:32:53.636Z,21.80
2022-09-07T21:35:22.791Z,22.05
2022-09-07T21:37:52.226Z,21.98
2022-09-07T21:40:19.697Z,22.02
2022-09-07T21:42:47.555Z,22.05
2022-09-07T21:45:15.118Z,21.98
2022-09-07T21:47:42.676Z,21.95
2022-09-07T21:50:10.544Z,21.85
2022-09-07T21:52:38.982Z,21.96
2022-09-07T21:55:07.471Z,21.68
2022-09-07T21:57:38.562Z,21.72
2022-09-07T22:00:08.428Z,21.76
2022-09-07T22:02:35.837Z,21.68
2022-09-07T22:05:04.385Z,21.76
2022-09-07T22:07:32.772Z,21.65
2022-09-07T22:10:03.261Z,21.52
2022-09-07T22:12:31.466Z,21.69
2022-09-07T22:14:58.948Z,21.57
2022-09-07T22:17:26.521Z,21.26
2022-09-07T22:19:54.385Z,21.41
2022-09-07T22:22:21.823Z,21.51
2022-09-07T22:24:49.247Z,21.61
2022-09-07T22:27:16.966Z,21.38
2022-09-07T22:29:44.904Z,21.63
2022-09-07T22:32:12.535Z,21.12
2022-09-07T22:34:40.191Z,21.35
2022-09-07T22:37:07.627Z,21.21
2022-09-07T22:39:35.100Z,21.35
2022-09-07T22:42:02.833Z,21.19
2022-09-07T22:44:30.426Z,21.34
2022-09-07T22:46:58.074Z,21.41
2022-09-07T22:49:25.788Z,21.20
2022-09-07T22:51:53.265Z,21.38
2022-09-07T22:54:21.477Z,21.09
2022-09-07T22:56:49.547Z,21.01
2022-09-07T22:59:17.042Z,21.16
2022-09-07T23:01:44.536Z,21.12
2022-09-07T23:04:13.361Z,21.19
2022-09-07T23:06:42.172Z,20.91
2022-09-07T23:09:12.505Z,21.17
2022-09-07T23:11:40.557Z,20.93
2022-09-07T23:14:12.926Z,20.76
2022-09-07T23:16:41.140Z,21.06
2022-09-07T23:19:10.213Z,20.97
2022-09-07T23:21:38.286Z,21.02
2022-09-07T23:24:06.224Z,21.14
2022-09-07T23:26:33.877Z,20.96
2022-09-07T23:29:04.631Z,21.10
2022-09-07T23:31:34.364Z,21.09
2022-09-07T23:34:02.870Z,21.11
2022-09-07T23:36:30.743Z,20.85
2022-09-07T23:38:59.673Z,20.98
2022-09-07T23:41:27.096Z,20.69
2022-09-07T23:43:54.953Z,20.98
2022-09-07T23:46:23.270Z,20.86
2022-09-07T23:48:50.866Z,21.10
2022-09-07T23:51:23.505Z,20.75
2022-09-07T23:53:52.412Z,20.72
2022-09-07T23:56:20.342Z,20.97
2022-09-07T23:58:47.952Z,20.70
